Time,TemperatureF,DewpointF,PressureIn,WindDirection,WindDirectionDegrees,WindSpeedMPH,WindSpeedGustMPH,Humidity,HourlyPrecipIn,Conditions,Clouds,dailyrainin,SoftwareType,DateUTC
2013-02-08 00:15:00,57.4,57.0,29.94,West,267,0.0,0.0,97,0.00,,,0.00,weatherlink.com 1.10,2013-02-08 06:15:00,
2013-02-08 00:30:00,59.0,59.0,29.93,South,177,1.0,5.0,99,0.00,,,0.00,weatherlink.com 1.10,2013-02-08 06:30:00,
2013-02-08 00:45:00,58.1,58.0,29.94,South,177,0.0,0.0,98,0.00,,,0.00,weatherlink.com 1.10,2013-02-08 06:45:00,
2013-02-08 01:00:00,58.5,58.0,29.96,NW,314,3.0,4.0,99,0.00,,,0.00,weatherlink.com 1.10,2013-02-08 07:00:00,
2013-02-08 01:15:00,59.3,59.0,29.96,NW,314,0.0,2.0,99,0.00,,,0.00,weatherlink.com 1.10,2013-02-08 07:15:00,
2013-02-08 01:30:00,59.9,60.0,29.97,NW,310,0.0,3.0,99,0.00,,,0.00,weatherlink.com 1.10,2013-02-08 07:30:00,
2013-02-08 01:45:00,60.4,60.0,29.96,West,274,2.0,5.0,99,0.00,,,0.00,weatherlink.com 1.10,2013-02-08 07:45:00,
2013-02-08 02:00:00,60.6,60.0,29.96,West,271,1.0,6.0,99,0.00,,,0.00,weatherlink.com 1.10,2013-02-08 08:00:00,
2013-02-08 02:15:00,60.4,60.0,29.96,West,277,5.0,5.0,99,0.00,,,0.00,weatherlink.com 1.10,2013-02-08 08:15:00,
2013-02-08 02:30:00,60.2,60.0,29.96,WNW,284,2.0,6.0,99,0.00,,,0.00,weatherlink.com 1.10,2013-02-08 08:30:00,
2013-02-08 02:45:00,60.3,60.0,29.96,WSW,238,2.0,5.0,99,0.00,,,0.00,weatherlink.com 1.10,2013-02-08 08:45:00,
2013-02-08 03:00:00,60.4,60.0,29.96,SW,235,2.0,4.0,99,0.00,,,0.00,weatherlink.com 1.10,2013-02-08 09:00:00,
2013-02-08 03:15:00,60.6,60.0,29.96,SW,229,2.0,4.0,99,0.00,,,0.00,weatherlink.com 1.10,2013-02-08 09:15:00,
2013-02-08 03:30:00,60.5,60.0,29.96,SW,225,2.0,4.0,99,0.00,,,0.00,weatherlink.com 1.10,2013-02-08 09:30:00,
2013-02-08 03:45:00,60.4,60.0,29.96,SW,217,6.0,7.0,99,0.00,,,0.00,weatherlink.com 1.10,2013-02-08 09:45:00,
2013-02-08 04:00:00,60.4,60.0,29.97,SW,217,3.0,4.0,99,0.00,,,0.00,weatherlink.com 1.10,2013-02-08 10:00:00,
2013-02-08 04:15:00,60.1,60.0,29.97,SW,226,3.0,5.0,99,0.00,,,0.00,weatherlink.com 1.10,2013-02-08 10:15:00,
2013-02-08 04:30:00,60.1,60.0,29.97,SW,228,2.0,7.0,99,0.00,,,0.00,weatherlink.com 1.10,2013-02-08 10:30:00,
2013-02-08 04:45:00,60.0,60.0,29.97,SW,229,2.0,5.0,99,0.00,,,0.00,weatherlink.com 1.10,2013-02-08 10:45:00,
2013-02-08 05:00:00,60.0,60.0,29.97,SW,224,4.0,4.0,99,0.00,,,0.00,weatherlink.com 1.10,2013-02-08 11:00:00,
2013-02-08 05:15:00,59.9,60.0,29.98,SW,219,2.0,4.0,99,0.00,,,0.00,weatherlink.com 1.10,2013-02-08 11:15:00,
2013-02-08 05:30:00,59.6,59.0,29.98,SW,223,3.0,6.0,99,0.00,,,0.00,weatherlink.com 1.10,2013-02-08 11:30:00,
2013-02-08 05:45:00,59.6,59.0,29.98,SW,232,2.0,4.0,99,0.00,,,0.00,weatherlink.com 1.10,2013-02-08 11:45:00,
2013-02-08 06:00:00,59.6,59.0,29.99,WSW,241,2.0,5.0,99,0.00,,,0.00,weatherlink.com 1.10,2013-02-08 12:00:00,
2013-02-08 06:15:00,59.4,59.0,29.99,SW,229,2.0,7.0,100,0.00,,,0.00,weatherlink.com 1.10,2013-02-08 12:15:00,
2013-02-08 06:30:00,59.4,59.0,30.00,SW,227,3.0,5.0,100,0.00,,,0.00,weatherlink.com 1.10,2013-02-08 12:30:00,
2013-02-08 06:45:00,59.6,60.0,30.00,WSW,251,2.0,4.0,100,0.00,,,0.00,weatherlink.com 1.10,2013-02-08 12:45:00,
2013-02-08 07:00:00,59.9,60.0,30.01,WNW,300,4.0,7.0,100,0.00,,,0.00,weatherlink.com 1.10,2013-02-08 13:00:00,
2013-02-08 07:15:00,59.9,60.0,30.02,NW,313,4.0,9.0,100,0.00,,,0.00,weatherlink.com 1.10,2013-02-08 13:15:00,
2013-02-08 07:30:00,59.9,60.0,30.03,WNW,290,6.0,10.0,100,0.00,,,0.00,weatherlink.com 1.10,2013-02-08 13:30:00,
2013-02-08 07:45:00,60.0,60.0,30.04,NW,313,5.0,9.0,100,0.00,,,0.00,weatherlink.com 1.10,2013-02-08 13:45:00,
2013-02-08 08:00:00,60.0,60.0,30.04,WNW,303,3.0,8.0,100,0.00,,,0.00,weatherlink.com 1.10,2013-02-08 14:00:00,
2013-02-08 08:15:00,60.0,60.0,30.05,NW,323,3.0,6.0,99,0.00,,,0.00,weatherlink.com 1.10,2013-02-08 14:15:00,
2013-02-08 08:30:00,60.4,60.0,30.06,NW,316,1.0,7.0,99,0.00,,,0.00,weatherlink.com 1.10,2013-02-08 14:30:00,
2013-02-08 08:45:00,60.9,60.0,30.07,WNW,298,8.0,8.0,98,0.00,,,0.00,weatherlink.com 1.10,2013-02-08 14:45:00,
2013-02-08 09:00:00,61.3,61.0,30.07,WNW,291,6.0,8.0,97,0.00,,,0.00,weatherlink.com 1.10,2013-02-08 15:00:00,
2013-02-08 09:15:00,61.8,60.0,30.08,NW,313,6.0,9.0,94,0.00,,,0.00,weatherlink.com 1.10,2013-02-08 15:15:00,
2013-02-08 09:30:00,62.1,60.0,30.08,NW,307,5.0,8.0,92,0.00,,,0.00,weatherlink.com 1.10,2013-02-08 15:30:00,
2013-02-08 09:46:00,62.5,60.0,30.09,NW,323,2.0,6.0,92,0.00,,,0.00,weatherlink.com 1.10,2013-02-08 15:46:00,
2013-02-08 10:01:00,63.4,60.0,30.09,North,351,2.0,5.0,88,0.00,,,0.00,weatherlink.com 1.10,2013-02-08 16:01:00,
2013-02-08 10:16:00,64.0,60.0,30.09,North,351,4.0,5.0,87,0.00,,,0.00,weatherlink.com 1.10,2013-02-08 16:16:00,
2013-02-08 10:31:00,64.2,60.0,30.10,NW,319,5.0,8.0,86,0.00,,,0.00,weatherlink.com 1.10,2013-02-08 16:31:00,
2013-02-08 10:46:00,64.6,59.0,30.10,NW,324,7.0,11.0,83,0.00,,,0.00,weatherlink.com 1.10,2013-02-08 16:46:00,
2013-02-08 11:01:00,64.7,60.0,30.10,NW,319,2.0,7.0,85,0.00,,,0.00,weatherlink.com 1.10,2013-02-08 17:01:00,
2013-02-08 11:16:00,65.7,60.0,30.09,North,5,2.0,10.0,82,0.00,,,0.00,weatherlink.com 1.10,2013-02-08 17:16:00,
2013-02-08 11:31:00,66.6,62.0,30.09,North,355,4.0,9.0,84,0.00,,,0.00,weatherlink.com 1.10,2013-02-08 17:31:00,
2013-02-08 11:46:00,66.0,60.0,30.09,NW,311,8.0,10.0,82,0.00,,,0.00,weatherlink.com 1.10,2013-02-08 17:46:00,
2013-02-08 12:01:00,65.8,60.0,30.09,WNW,301,7.0,10.0,81,0.00,,,0.00,weatherlink.com 1.10,2013-02-08 18:01:00,
2013-02-08 12:16:00,66.7,61.0,30.08,North,355,4.0,9.0,82,0.00,,,0.00,weatherlink.com 1.10,2013-02-08 18:16:00,
2013-02-08 12:31:00,67.1,61.0,30.08,NW,313,7.0,9.0,80,0.00,,,0.00,weatherlink.com 1.10,2013-02-08 18:31:00,
2013-02-08 12:46:00,67.6,61.0,30.08,NW,311,3.0,7.0,78,0.00,,,0.00,weatherlink.com 1.10,2013-02-08 18:46:00,
2013-02-08 13:01:00,67.8,61.0,30.07,North,355,3.0,6.0,79,0.00,,,0.00,weatherlink.com 1.10,2013-02-08 19:01:00,
2013-02-08 13:16:00,67.6,61.0,30.07,WNW,301,6.0,10.0,78,0.00,,,0.00,weatherlink.com 1.10,2013-02-08 19:16:00,
2013-02-08 13:31:00,67.0,60.0,30.07,North,355,4.0,9.0,77,0.00,,,0.00,weatherlink.com 1.10,2013-02-08 19:31:00,
2013-02-08 13:46:00,66.1,60.0,30.06,North,355,1.0,8.0,81,0.00,,,0.00,weatherlink.com 1.10,2013-02-08 19:46:00,
2013-02-08 14:01:00,66.9,60.0,30.07,North,350,4.0,9.0,79,0.00,,,0.00,weatherlink.com 1.10,2013-02-08 20:01:00,
2013-02-08 14:16:00,66.8,60.0,30.07,North,360,9.0,12.0,78,0.00,,,0.00,weatherlink.com 1.10,2013-02-08 20:16:00,
2013-02-08 14:31:00,65.6,59.0,30.07,NNE,17,3.0,12.0,78,0.00,,,0.00,weatherlink.com 1.10,2013-02-08 20:31:00,
2013-02-08 14:46:00,65.2,59.0,30.06,NW,326,5.0,9.0,79,0.00,,,0.00,weatherlink.com 1.10,2013-02-08 20:46:00,
2013-02-08 15:01:00,67.1,59.0,30.07,NNW,348,9.0,11.0,75,0.00,,,0.00,weatherlink.com 1.10,2013-02-08 21:01:00,
2013-02-08 15:16:00,66.9,59.0,30.06,NNW,346,11.0,12.0,76,0.00,,,0.00,weatherlink.com 1.10,2013-02-08 21:16:00,
2013-02-08 15:31:00,66.6,59.0,30.07,North,355,7.0,11.0,76,0.00,,,0.00,weatherlink.com 1.10,2013-02-08 21:31:00,
2013-02-08 15:46:00,64.7,57.0,30.07,North,5,4.0,11.0,76,0.00,,,0.00,weatherlink.com 1.10,2013-02-08 21:46:00,
2013-02-08 16:01:00,63.7,57.0,30.07,NE,34,4.0,10.0,79,0.00,,,0.00,weatherlink.com 1.10,2013-02-08 22:01:00,
2013-02-08 16:16:00,63.2,57.0,30.08,North,5,6.0,9.0,80,0.00,,,0.00,weatherlink.com 1.10,2013-02-08 22:16:00,
2013-02-08 16:31:00,62.1,56.0,30.09,North,351,7.0,10.0,80,0.00,,,0.00,weatherlink.com 1.10,2013-02-08 22:31:00,
2013-02-08 16:46:00,61.4,56.0,30.09,NNE,27,1.0,8.0,81,0.00,,,0.00,weatherlink.com 1.10,2013-02-08 22:46:00,
2013-02-08 17:01:00,60.6,55.0,30.09,NNW,348,3.0,9.0,81,0.00,,,0.00,weatherlink.com 1.10,2013-02-08 23:01:00,
2013-02-08 17:16:00,60.1,55.0,30.10,NE,42,3.0,7.0,82,0.00,,,0.00,weatherlink.com 1.10,2013-02-08 23:16:00,
2013-02-08 17:31:00,59.7,54.0,30.10,North,9,1.0,6.0,82,0.00,,,0.00,weatherlink.com 1.10,2013-02-08 23:31:00,
2013-02-08 17:46:00,59.3,54.0,30.10,NNE,17,4.0,7.0,82,0.00,,,0.00,weatherlink.com 1.10,2013-02-08 23:46:00,
2013-02-08 18:01:00,58.7,53.0,30.10,North,5,3.0,7.0,82,0.00,,,0.00,weatherlink.com 1.10,2013-02-09 00:01:00,
2013-02-08 18:16:00,58.4,53.0,30.11,North,360,2.0,7.0,83,0.00,,,0.00,weatherlink.com 1.10,2013-02-09 00:16:00,
2013-02-08 18:31:00,58.2,53.0,30.11,NNW,341,4.0,9.0,84,0.00,,,0.00,weatherlink.com 1.10,2013-02-09 00:31:00,
2013-02-08 18:46:00,57.9,53.0,30.11,North,9,1.0,9.0,84,0.00,,,0.00,weatherlink.com 1.10,2013-02-09 00:46:00,
2013-02-08 19:01:00,57.4,52.0,30.11,North,5,3.0,12.0,83,0.00,,,0.00,weatherlink.com 1.10,2013-02-09 01:01:00,
2013-02-08 19:16:00,56.6,52.0,30.12,NNE,29,3.0,7.0,84,0.00,,,0.00,weatherlink.com 1.10,2013-02-09 01:16:00,
2013-02-08 19:31:00,56.1,52.0,30.12,NNE,24,3.0,7.0,85,0.00,,,0.00,weatherlink.com 1.10,2013-02-09 01:31:00,
2013-02-08 19:46:00,55.7,52.0,30.12,North,11,3.0,7.0,86,0.00,,,0.00,weatherlink.com 1.10,2013-02-09 01:46:00,
2013-02-08 20:01:00,55.5,51.0,30.12,North,5,4.0,8.0,85,0.00,,,0.00,weatherlink.com 1.10,2013-02-09 02:01:00,
2013-02-08 20:16:00,55.2,51.0,30.13,NNE,31,0.0,6.0,85,0.00,,,0.00,weatherlink.com 1.10,2013-02-09 02:16:00,
2013-02-08 20:31:00,54.5,50.0,30.13,North,355,0.0,3.0,85,0.00,,,0.00,weatherlink.com 1.10,2013-02-09 02:31:00,
2013-02-08 20:46:00,54.0,50.0,30.13,North,355,0.0,2.0,86,0.00,,,0.00,weatherlink.com 1.10,2013-02-09 02:46:00,
2013-02-08 21:02:00,53.5,50.0,30.14,NNW,348,1.0,4.0,86,0.00,,,0.00,weatherlink.com 1.10,2013-02-09 03:02:00,
2013-02-08 21:17:00,53.0,49.0,30.13,North,5,0.0,3.0,87,0.00,,,0.00,weatherlink.com 1.10,2013-02-09 03:17:00,
2013-02-08 21:32:00,52.5,49.0,30.13,NNE,17,2.0,4.0,88,0.00,,,0.00,weatherlink.com 1.10,2013-02-09 03:32:00,
2013-02-08 21:47:00,52.2,49.0,30.12,NNE,19,2.0,5.0,89,0.00,,,0.00,weatherlink.com 1.10,2013-02-09 03:47:00,
2013-02-08 22:02:00,52.1,49.0,30.13,NE,52,1.0,6.0,89,0.00,,,0.00,weatherlink.com 1.10,2013-02-09 04:02:00,
2013-02-08 22:17:00,51.8,49.0,30.13,North,10,0.0,5.0,89,0.00,,,0.00,weatherlink.com 1.10,2013-02-09 04:17:00,
2013-02-08 22:32:00,51.5,49.0,30.14,North,360,2.0,4.0,90,0.00,,,0.00,weatherlink.com 1.10,2013-02-09 04:32:00,
2013-02-08 22:47:00,51.2,48.0,30.14,NNE,28,1.0,3.0,90,0.00,,,0.00,weatherlink.com 1.10,2013-02-09 04:47:00,
2013-02-08 23:02:00,51.2,49.0,30.14,NNE,31,1.0,3.0,91,0.00,,,0.00,weatherlink.com 1.10,2013-02-09 05:02:00,
2013-02-08 23:17:00,51.3,49.0,30.14,NNE,28,2.0,3.0,91,0.00,,,0.00,weatherlink.com 1.10,2013-02-09 05:17:00,
2013-02-08 23:32:00,51.5,49.0,30.13,NE,42,2.0,4.0,92,0.00,,,0.00,weatherlink.com 1.10,2013-02-09 05:32:00,
2013-02-08 23:47:00,51.7,50.0,30.12,ENE,64,2.0,7.0,92,0.00,,,0.00,weatherlink.com 1.10,2013-02-09 05:47:00,